Time;durP1;ratioP1;P1;durP2;ratioP2;P2;SDS_P1;SDS_P2;PMS_P1;PMS_P2;Temp;Humidity;BMP_temperature;BMP_pressure;BME280_temperature;BME280_humidity;BME280_pressure;Samples;Min_cycle;Max_cycle;Signal;HPM_P1;HPM_P2
2020/12/14 00:01:36;;;;;;;9.63;3.60;;;6.30;99.90;;;;;;4392100;32;20167;-69
2020/12/14 00:04:02;;;;;;;11.97;3.43;;;6.30;99.90;;;;;;4390843;32;20443;-70
2020/12/14 00:06:31;;;;;;;16.60;3.97;;;6.30;99.90;;;;;;4392667;32;20186;-70
2020/12/14 00:09:00;;;;;;;12.90;3.47;;;6.30;99.90;;;;;;4390266;32;20180;-70
2020/12/14 00:11:35;;;;;;;11.60;3.17;;;6.30;99.90;;;;;;4389462;32;20156;-71
2020/12/14 00:14:02;;;;;;;8.03;2.80;;;6.40;99.90;;;;;;4390990;32;20273;-69
2020/12/14 00:16:29;;;;;;;8.73;3.63;;;6.50;99.90;;;;;;4391017;32;20604;-71
2020/12/14 00:19:00;;;;;;;13.27;3.23;;;6.30;99.90;;;;;;4391838;32;20168;-69
2020/12/14 00:21:26;;;;;;;12.30;3.50;;;6.30;99.90;;;;;;4387458;32;20172;-70
2020/12/14 00:23:57;;;;;;;13.23;3.67;;;6.40;99.90;;;;;;4389711;32;20333;-69
2020/12/14 00:26:34;;;;;;;7.40;2.70;;;6.40;99.90;;;;;;4387124;32;20643;-69
2020/12/14 00:29:04;;;;;;;10.63;3.47;;;6.40;99.90;;;;;;4389268;32;20171;-68
2020/12/14 00:31:30;;;;;;;6.20;2.93;;;6.40;99.90;;;;;;4389207;32;20651;-68
2020/12/14 00:33:56;;;;;;;11.53;3.20;;;6.40;99.90;;;;;;4387920;32;20175;-69
2020/12/14 00:36:22;;;;;;;7.23;2.73;;;6.40;99.90;;;;;;4388379;32;20206;-69
2020/12/14 00:38:53;;;;;;;6.23;2.50;;;6.40;99.90;;;;;;4388101;32;20533;-69
2020/12/14 00:41:27;;;;;;;9.73;2.73;;;6.50;99.90;;;;;;4388841;32;20238;-68
2020/12/14 00:43:55;;;;;;;6.27;2.67;;;6.50;99.90;;;;;;4388523;32;20604;-69
2020/12/14 00:46:24;;;;;;;12.50;2.87;;;6.60;99.90;;;;;;4386906;32;20175;-69
2020/12/14 00:48:53;;;;;;;14.03;2.90;;;6.60;99.90;;;;;;4387514;32;20168;-69
2020/12/14 00:51:33;;;;;;;6.97;2.60;;;6.50;99.90;;;;;;4389900;32;20197;-69
2020/12/14 00:54:06;;;;;;;9.37;2.80;;;6.60;99.90;;;;;;4394325;32;20190;-69
2020/12/14 00:56:34;;;;;;;9.50;3.03;;;6.70;99.90;;;;;;4398836;32;20147;-69
2020/12/14 00:59:00;;;;;;;6.70;2.43;;;6.70;99.90;;;;;;4389284;32;20168;-70
2020/12/14 01:01:28;;;;;;;7.93;2.40;;;6.70;99.90;;;;;;4398686;32;20216;-70
2020/12/14 01:03:56;;;;;;;6.60;2.37;;;6.60;99.90;;;;;;4388430;32;20152;-69
2020/12/14 01:06:27;;;;;;;9.70;2.20;;;6.70;99.90;;;;;;4391344;32;20241;-69
2020/12/14 01:08:58;;;;;;;9.67;2.80;;;6.70;99.90;;;;;;4393077;32;20219;-68
2020/12/14 01:11:26;;;;;;;9.73;2.53;;;6.70;99.90;;;;;;4392498;32;20597;-69
2020/12/14 01:13:55;;;;;;;12.10;2.83;;;6.70;99.90;;;;;;4395435;32;20167;-70
2020/12/14 01:16:21;;;;;;;9.73;2.67;;;6.70;99.90;;;;;;4402064;32;20163;-69
2020/12/14 01:18:50;;;;;;;6.33;2.33;;;6.80;99.90;;;;;;4392344;32;20314;-69
2020/12/14 01:21:27;;;;;;;12.70;2.60;;;6.90;99.90;;;;;;4393669;32;20580;-68
2020/12/14 01:23:53;;;;;;;4.53;2.13;;;6.90;99.90;;;;;;4398370;32;20206;-69
2020/12/14 01:26:25;;;;;;;4.83;2.40;;;6.90;99.90;;;;;;4396036;32;20242;-68
2020/12/14 01:29:02;;;;;;;6.47;2.30;;;7.00;99.90;;;;;;4395443;32;20228;-68
2020/12/14 01:31:32;;;;;;;6.77;1.80;;;7.10;99.90;;;;;;4394440;32;20159;-68
2020/12/14 01:34:01;;;;;;;7.03;2.37;;;7.10;99.90;;;;;;4394323;32;20701;-68
2020/12/14 01:36:40;;;;;;;6.67;2.20;;;7.20;99.90;;;;;;4391657;32;20211;-69
2020/12/14 01:39:09;;;;;;;5.33;2.80;;;7.10;99.90;;;;;;4392583;32;20635;-67
2020/12/14 01:41:48;;;;;;;5.10;1.93;;;7.10;99.90;;;;;;4394858;32;20547;-69
2020/12/14 01:44:16;;;;;;;6.73;2.10;;;7.10;99.90;;;;;;4392440;32;20215;-69
2020/12/14 01:46:47;;;;;;;4.50;2.33;;;7.10;99.90;;;;;;4394375;32;20160;-68
2020/12/14 01:49:19;;;;;;;5.00;2.10;;;7.30;99.90;;;;;;4395977;32;20206;-67
2020/12/14 01:52:02;;;;;;;7.40;2.30;;;7.20;99.90;;;;;;4391487;32;20152;-67
2020/12/14 01:54:38;;;;;;;6.53;2.77;;;7.20;99.90;;;;;;4400126;32;20167;-66
2020/12/14 01:57:04;;;;;;;3.83;2.13;;;7.30;99.90;;;;;;4392972;32;20194;-69
2020/12/14 01:59:34;;;;;;;6.47;2.30;;;7.30;99.90;;;;;;4391700;32;20561;-67
2020/12/14 02:02:04;;;;;;;8.50;2.30;;;7.20;99.90;;;;;;4397621;32;20568;-67
2020/12/14 02:04:32;;;;;;;2.70;1.73;;;7.30;99.90;;;;;;4402473;32;20160;-67
2020/12/14 02:06:58;;;;;;;10.10;2.90;;;7.30;99.90;;;;;;4390570;32;20198;-67
2020/12/14 02:09:28;;;;;;;6.23;2.57;;;7.30;99.90;;;;;;4398679;32;20227;-67
2020/12/14 02:11:56;;;;;;;5.07;2.30;;;7.20;99.90;;;;;;4391400;32;20159;-67
2020/12/14 02:14:25;;;;;;;9.13;2.57;;;7.40;99.90;;;;;;4398251;32;20172;-69
2020/12/14 02:16:52;;;;;;;4.57;2.30;;;7.40;99.90;;;;;;4394708;32;20242;-69
2020/12/14 02:19:18;;;;;;;5.83;2.37;;;7.40;99.90;;;;;;4391147;32;20220;-69
2020/12/14 02:21:57;;;;;;;5.47;2.90;;;7.40;99.90;;;;;;4392575;32;20188;-68
2020/12/14 02:24:24;;;;;;;4.93;2.27;;;7.40;99.90;;;;;;4391859;32;20276;-69
2020/12/14 02:26:53;;;;;;;7.67;3.23;;;7.40;99.90;;;;;;4393215;32;20280;-68
2020/12/14 02:29:23;;;;;;;7.10;2.77;;;7.30;99.90;;;;;;4399436;32;20164;-69
2020/12/14 02:31:50;;;;;;;6.43;2.73;;;7.30;99.90;;;;;;4391345;32;20218;-69
2020/12/14 02:34:19;;;;;;;4.43;2.93;;;7.20;99.90;;;;;;4399501;32;20615;-68
2020/12/14 02:36:49;;;;;;;8.83;3.33;;;7.40;99.90;;;;;;4394356;32;20242;-68
2020/12/14 02:39:20;;;;;;;6.77;3.13;;;7.40;99.90;;;;;;4389532;32;20831;-68
2020/12/14 02:41:47;;;;;;;10.00;3.60;;;7.40;99.90;;;;;;4392228;32;20281;-68
2020/12/14 02:44:13;;;;;;;6.17;3.43;;;7.50;99.90;;;;;;4401068;32;20679;-68
2020/12/14 02:46:41;;;;;;;6.70;3.33;;;7.40;99.90;;;;;;4392340;32;20171;-68
2020/12/14 02:49:07;;;;;;;4.50;3.63;;;7.40;99.90;;;;;;4393452;32;20179;-68
2020/12/14 02:51:34;;;;;;;4.93;3.67;;;7.40;99.90;;;;;;4399609;32;20238;-68
2020/12/14 02:54:01;;;;;;;5.53;4.07;;;7.50;99.90;;;;;;4396289;32;20216;-68
2020/12/14 02:56:31;;;;;;;5.30;3.87;;;7.50;99.90;;;;;;4392856;32;20156;-68
2020/12/14 02:59:02;;;;;;;5.50;3.90;;;7.40;99.90;;;;;;4398275;32;20204;-69
2020/12/14 03:01:40;;;;;;;9.73;4.80;;;7.40;99.90;;;;;;4392728;32;20168;-68
2020/12/14 03:06:49;;;;;;;9.87;3.63;;;7.50;99.90;;;;;;4399666;32;20179;-67
2020/12/14 03:09:23;;;;;;;8.30;4.33;;;7.50;99.90;;;;;;4393721;32;20207;-67
2020/12/14 03:12:08;;;;;;;6.73;4.03;;;7.50;99.90;;;;;;4393358;32;20194;-68
2020/12/14 03:14:35;;;;;;;7.30;5.13;;;7.50;99.90;;;;;;4392145;32;20171;-67
2020/12/14 03:17:03;;;;;;;9.40;5.77;;;7.40;99.90;;;;;;4390736;32;20247;-68
2020/12/14 03:19:33;;;;;;;6.20;4.43;;;7.40;99.90;;;;;;4389163;32;20207;-67
2020/12/14 03:22:02;;;;;;;9.63;5.50;;;7.40;99.90;;;;;;4394462;32;20182;-69
2020/12/14 03:24:35;;;;;;;11.10;5.80;;;7.50;99.90;;;;;;4397242;32;20167;-69
2020/12/14 03:27:03;;;;;;;9.53;6.00;;;7.60;99.90;;;;;;4398666;32;20220;-71
2020/12/14 03:29:33;;;;;;;7.63;5.87;;;7.50;99.90;;;;;;4392942;32;20235;-71
2020/12/14 03:32:07;;;;;;;9.60;6.10;;;7.40;99.90;;;;;;4392540;32;20183;-71
2020/12/14 03:34:37;;;;;;;10.03;6.17;;;7.30;99.90;;;;;;4398143;32;20232;-70
2020/12/14 03:37:03;;;;;;;11.50;6.90;;;7.40;99.90;;;;;;4390560;32;20156;-69
2020/12/14 03:39:30;;;;;;;8.97;6.67;;;7.40;99.90;;;;;;4398284;32;20683;-72
2020/12/14 03:41:56;;;;;;;11.47;6.87;;;7.40;99.90;;;;;;4395479;32;20175;-72
2020/12/14 03:44:22;;;;;;;9.60;6.80;;;7.40;99.90;;;;;;4392148;32;20290;-70
2020/12/14 03:46:50;;;;;;;11.17;7.37;;;7.40;99.90;;;;;;4390389;32;20211;-71
2020/12/14 03:49:18;;;;;;;11.67;7.27;;;7.40;99.90;;;;;;4391454;32;20484;-71
2020/12/14 03:51:44;;;;;;;11.83;7.40;;;7.50;99.90;;;;;;4392352;32;20243;-71
2020/12/14 03:54:10;;;;;;;11.40;7.27;;;7.50;99.90;;;;;;4390157;32;20581;-71
2020/12/14 03:56:42;;;;;;;10.37;6.77;;;7.50;99.90;;;;;;4398095;32;20177;-70
2020/12/14 03:59:14;;;;;;;9.77;6.57;;;7.50;99.90;;;;;;4403912;32;20175;-72
2020/12/14 04:01:44;;;;;;;8.73;6.70;;;7.70;99.90;;;;;;4390225;32;20542;-71
2020/12/14 04:04:13;;;;;;;8.33;6.50;;;7.40;99.90;;;;;;4390710;32;20184;-71
2020/12/14 04:06:46;;;;;;;11.27;7.70;;;7.40;99.90;;;;;;4389130;32;20592;-71
2020/12/14 04:09:16;;;;;;;9.47;7.73;;;7.40;99.90;;;;;;4397983;32;20247;-71
2020/12/14 04:11:43;;;;;;;11.80;8.70;;;7.50;99.90;;;;;;4399578;32;20252;-70
2020/12/14 04:14:14;;;;;;;12.10;8.67;;;7.50;99.90;;;;;;4392551;32;20224;-72
2020/12/14 04:16:43;;;;;;;12.07;8.80;;;7.50;99.90;;;;;;4398825;32;20313;-70
2020/12/14 04:19:10;;;;;;;12.53;8.93;;;7.50;99.90;;;;;;4390188;32;20178;-71
2020/12/14 04:21:38;;;;;;;11.93;10.63;;;7.60;99.90;;;;;;4389775;32;20152;-70
2020/12/14 04:24:07;;;;;;;10.63;9.53;;;7.50;99.90;;;;;;4390557;32;20187;-70
2020/12/14 04:26:38;;;;;;;15.50;9.53;;;7.60;99.90;;;;;;4391713;32;20171;-71
2020/12/14 04:29:05;;;;;;;10.83;9.40;;;7.60;99.90;;;;;;4395727;32;20183;-70
2020/12/14 04:31:37;;;;;;;13.03;11.23;;;7.70;99.90;;;;;;4390887;32;20186;-70
2020/12/14 04:34:04;;;;;;;13.60;10.20;;;7.60;99.90;;;;;;4389501;32;20175;-70
2020/12/14 04:36:30;;;;;;;14.27;10.90;;;7.60;99.90;;;;;;4391665;32;20156;-71
2020/12/14 04:38:59;;;;;;;13.10;11.10;;;7.60;99.90;;;;;;4389478;32;20179;-70
2020/12/14 04:41:28;;;;;;;15.03;11.77;;;7.70;99.90;;;;;;4400482;32;20167;-71
2020/12/14 04:44:02;;;;;;;14.00;11.03;;;7.60;99.90;;;;;;4398770;32;20156;-72
2020/12/14 04:46:38;;;;;;;15.83;12.70;;;7.60;99.90;;;;;;4407532;32;20568;-71
2020/12/14 04:49:10;;;;;;;14.03;10.90;;;7.60;99.90;;;;;;4391931;32;20636;-70
2020/12/14 04:51:38;;;;;;;14.70;11.70;;;7.60;99.90;;;;;;4392174;32;20144;-70
2020/12/14 04:54:10;;;;;;;13.73;11.00;;;7.70;99.90;;;;;;4396314;32;20177;-70
2020/12/14 04:56:43;;;;;;;15.87;11.43;;;7.60;99.90;;;;;;4393493;32;20182;-71
2020/12/14 04:59:23;;;;;;;15.43;11.80;;;7.70;99.90;;;;;;4397735;32;20228;-73
2020/12/14 05:01:52;;;;;;;13.93;11.33;;;7.60;99.90;;;;;;4400523;32;20650;-71
2020/12/14 05:04:19;;;;;;;16.27;12.03;;;7.70;99.90;;;;;;4396651;32;20216;-72
2020/12/14 05:06:52;;;;;;;15.17;10.93;;;7.70;99.90;;;;;;4404084;32;20182;-71
2020/12/14 05:09:24;;;;;;;15.73;12.63;;;7.70;99.90;;;;;;4392114;32;20171;-72
2020/12/14 05:11:51;;;;;;;17.40;11.50;;;7.70;99.90;;;;;;4393715;32;20175;-71
2020/12/14 05:14:23;;;;;;;14.87;11.13;;;7.70;99.90;;;;;;4399026;32;20235;-70
2020/12/14 05:17:01;;;;;;;17.07;12.40;;;7.70;99.90;;;;;;4398172;32;20163;-71
2020/12/14 05:19:50;;;;;;;16.73;11.17;;;7.70;99.90;;;;;;4391713;32;20184;-72
2020/12/14 05:22:21;;;;;;;16.63;11.20;;;7.70;99.90;;;;;;4395017;32;20632;-72
2020/12/14 05:24:55;;;;;;;14.93;11.40;;;7.80;99.90;;;;;;4398224;32;20167;-72
2020/12/14 05:27:46;;;;;;;15.37;11.80;;;7.70;99.90;;;;;;4395256;32;20231;-72
2020/12/14 05:30:15;;;;;;;15.23;11.63;;;7.80;99.90;;;;;;4333625;33;20595;-72
2020/12/14 05:32:58;;;;;;;16.00;12.13;;;7.70;99.90;;;;;;4338489;33;20180;-72
2020/12/14 05:35:54;;;;;;;18.40;12.40;;;7.70;99.90;;;;;;4338777;33;20189;-72
2020/12/14 05:38:24;;;;;;;14.80;11.43;;;7.70;99.90;;;;;;4300047;33;20632;-71
2020/12/14 05:40:55;;;;;;;14.63;10.20;;;7.80;99.90;;;;;;4299494;33;20174;-70
2020/12/14 05:43:32;;;;;;;15.47;10.90;;;7.80;99.90;;;;;;4290658;33;20197;-70
2020/12/14 05:46:16;;;;;;;15.33;11.97;;;7.90;99.90;;;;;;4299979;33;20167;-71
2020/12/14 05:48:47;;;;;;;14.97;11.77;;;7.90;99.90;;;;;;4299294;33;20636;-73
2020/12/14 05:51:32;;;;;;;16.30;11.37;;;7.90;99.90;;;;;;4298784;33;20189;-72
2020/12/14 05:54:11;;;;;;;14.73;11.10;;;8.00;99.90;;;;;;4299139;33;20166;-71
2020/12/14 05:56:44;;;;;;;22.47;11.63;;;8.10;99.90;;;;;;4325070;33;20232;-73
2020/12/14 05:59:22;;;;;;;13.50;10.93;;;8.10;99.90;;;;;;4340034;33;20215;-71
2020/12/14 06:01:51;;;;;;;13.90;10.70;;;8.00;99.90;;;;;;4341145;33;20558;-71
2020/12/14 06:04:23;;;;;;;14.87;10.70;;;8.10;99.90;;;;;;4344004;33;20622;-70
2020/12/14 06:06:59;;;;;;;14.23;10.67;;;8.10;99.90;;;;;;4357935;32;20643;-70
2020/12/14 06:09:26;;;;;;;13.57;11.10;;;8.10;99.90;;;;;;4394131;32;20607;-71
2020/12/14 06:11:54;;;;;;;12.67;10.97;;;8.00;99.90;;;;;;4397361;32;20180;-72
2020/12/14 06:14:21;;;;;;;14.20;10.77;;;8.10;99.90;;;;;;4391072;32;20161;-71
2020/12/14 06:17:01;;;;;;;14.83;10.70;;;8.10;99.90;;;;;;4395256;32;20160;-73
2020/12/14 06:19:29;;;;;;;13.40;11.30;;;8.20;99.90;;;;;;4393770;32;20595;-71
2020/12/14 06:22:03;;;;;;;14.70;11.20;;;8.20;99.90;;;;;;4393229;32;20245;-71
2020/12/14 06:24:43;;;;;;;12.77;10.93;;;8.20;99.90;;;;;;4388491;32;20171;-72
2020/12/14 06:27:19;;;;;;;13.67;11.00;;;8.20;99.90;;;;;;4391183;32;20285;-72
2020/12/14 06:29:48;;;;;;;13.00;10.87;;;8.20;99.90;;;;;;4390498;32;20174;-72
2020/12/14 06:32:38;;;;;;;15.03;10.97;;;8.20;99.90;;;;;;4382009;32;20250;-71
2020/12/14 06:35:13;;;;;;;14.20;11.53;;;8.30;99.90;;;;;;4395233;32;20171;-73
2020/12/14 06:37:55;;;;;;;14.37;11.27;;;8.20;99.90;;;;;;4394313;32;20167;-72
2020/12/14 06:40:23;;;;;;;12.97;11.53;;;8.20;99.90;;;;;;4391917;32;20219;-72
2020/12/14 06:42:56;;;;;;;13.13;10.40;;;8.30;99.90;;;;;;4391693;32;20629;-72
2020/12/14 06:45:26;;;;;;;16.23;13.93;;;8.30;99.90;;;;;;4394611;32;20596;-71
2020/12/14 06:47:53;;;;;;;17.93;13.10;;;8.40;99.90;;;;;;4393388;32;20621;-72
2020/12/14 06:51:00;;;;;;;15.77;12.77;;;8.40;99.90;;;;;;4392559;32;20182;-72
2020/12/14 06:53:52;;;;;;;14.73;11.83;;;8.40;99.90;;;;;;4390972;32;20223;-72
2020/12/14 06:56:48;;;;;;;17.90;14.50;;;8.40;99.90;;;;;;4395276;32;20148;-72
2020/12/14 06:59:33;;;;;;;18.47;14.00;;;8.40;99.90;;;;;;4389256;32;20226;-72
2020/12/14 07:02:02;;;;;;;17.97;13.50;;;8.40;99.90;;;;;;4389986;32;20194;-73
2020/12/14 07:04:40;;;;;;;20.20;13.87;;;8.40;99.90;;;;;;4393254;32;20149;-69
2020/12/14 07:07:37;;;;;;;16.63;13.17;;;8.40;99.90;;;;;;4393178;32;20194;-72
2020/12/14 07:10:15;;;;;;;19.13;14.87;;;8.40;99.90;;;;;;4386259;32;20191;-71
2020/12/14 07:12:50;;;;;;;20.47;15.37;;;8.40;99.90;;;;;;4392420;32;20267;-71
2020/12/14 07:15:38;;;;;;;23.50;15.93;;;8.40;99.90;;;;;;4393685;32;20213;-71
2020/12/14 07:18:28;;;;;;;21.17;16.33;;;8.50;99.90;;;;;;4393473;32;20238;-71
2020/12/14 07:21:13;;;;;;;19.63;14.30;;;8.50;99.90;;;;;;4399421;32;20155;-71
2020/12/14 07:23:44;;;;;;;22.00;15.27;;;8.50;99.90;;;;;;4393225;32;20214;-73
2020/12/14 07:26:21;;;;;;;24.90;17.03;;;8.50;99.90;;;;;;4396086;32;20463;-71
2020/12/14 07:28:59;;;;;;;21.63;16.77;;;8.50;99.90;;;;;;4392717;32;20527;-72
2020/12/14 07:31:26;;;;;;;18.47;15.13;;;8.60;99.90;;;;;;4391937;32;20570;-72
2020/12/14 07:33:58;;;;;;;19.77;16.60;;;8.60;99.90;;;;;;4389675;32;20244;-69
2020/12/14 07:36:26;;;;;;;21.50;16.47;;;8.60;99.90;;;;;;4133785;32;8428260;-72
2020/12/14 07:38:54;;;;;;;23.17;17.37;;;8.70;99.90;;;;;;4391693;32;20162;-70
2020/12/14 07:41:23;;;;;;;23.60;15.37;;;8.60;99.90;;;;;;4392888;32;20182;-71
2020/12/14 07:43:54;;;;;;;18.90;15.70;;;8.70;99.90;;;;;;4393708;32;20182;-72
2020/12/14 07:46:35;;;;;;;17.70;15.00;;;8.80;99.90;;;;;;4393015;32;20232;-71
2020/12/14 07:49:09;;;;;;;19.67;15.00;;;8.80;99.90;;;;;;4394236;32;20268;-70
2020/12/14 07:51:47;;;;;;;19.53;14.60;;;8.80;99.90;;;;;;4393152;32;20248;-70
2020/12/14 07:54:19;;;;;;;18.63;14.40;;;8.80;99.90;;;;;;4393964;32;20175;-69
2020/12/14 07:57:00;;;;;;;17.73;15.37;;;8.80;99.90;;;;;;4394124;32;20183;-69
2020/12/14 07:59:37;;;;;;;17.30;13.70;;;9.00;99.90;;;;;;4394036;32;20188;-70
2020/12/14 08:02:10;;;;;;;17.03;14.03;;;8.90;99.90;;;;;;4390958;32;20155;-73
2020/12/14 08:04:38;;;;;;;19.80;13.93;;;9.00;99.90;;;;;;4390975;32;20152;-73
2020/12/14 08:07:13;;;;;;;16.53;13.23;;;9.00;99.90;;;;;;4394187;32;20721;-70
2020/12/14 08:09:47;;;;;;;18.60;13.00;;;9.10;99.90;;;;;;4388960;32;20148;-71
2020/12/14 08:12:17;;;;;;;23.03;14.07;;;9.10;99.90;;;;;;4389399;32;20222;-70
2020/12/14 08:14:57;;;;;;;15.03;12.60;;;9.20;99.90;;;;;;4389014;32;20154;-70
2020/12/14 08:17:28;;;;;;;19.33;13.47;;;9.20;99.90;;;;;;4389956;32;20237;-71
2020/12/14 08:19:58;;;;;;;16.53;12.43;;;9.20;99.90;;;;;;4392630;32;20247;-71
2020/12/14 08:22:35;;;;;;;15.90;13.20;;;9.20;99.90;;;;;;4393614;32;20217;-71
2020/12/14 08:25:04;;;;;;;14.17;12.57;;;9.30;99.90;;;;;;4392094;32;20498;-70
2020/12/14 08:27:44;;;;;;;14.30;12.70;;;9.20;99.90;;;;;;4393040;32;20935;-71
2020/12/14 08:30:19;;;;;;;17.83;14.23;;;9.30;99.90;;;;;;4391007;32;20191;-72
2020/12/14 08:33:13;;;;;;;17.27;12.47;;;9.40;99.90;;;;;;4391731;32;20159;-69
2020/12/14 08:35:44;;;;;;;14.50;12.37;;;9.30;99.90;;;;;;4394537;32;20158;-70
2020/12/14 08:38:22;;;;;;;17.87;12.00;;;9.40;99.90;;;;;;4397461;32;20230;-70
2020/12/14 08:40:55;;;;;;;16.60;13.87;;;9.50;99.90;;;;;;4390773;32;20577;-71
2020/12/14 08:43:37;;;;;;;16.00;12.70;;;9.40;99.90;;;;;;4389057;32;20656;-70
2020/12/14 08:46:07;;;;;;;17.80;13.17;;;9.50;99.90;;;;;;4394820;32;20212;-72
2020/12/14 08:48:46;;;;;;;13.87;11.83;;;9.50;99.90;;;;;;4392879;32;20635;-70
2020/12/14 08:51:42;;;;;;;14.17;12.60;;;9.50;99.90;;;;;;4390982;32;20178;-71
2020/12/14 08:54:25;;;;;;;13.53;11.67;;;9.50;99.90;;;;;;4389024;32;20167;-69
2020/12/14 08:57:01;;;;;;;14.57;11.57;;;9.60;99.90;;;;;;4393968;32;20246;-74
2020/12/14 08:59:35;;;;;;;16.00;12.67;;;9.60;99.90;;;;;;4398105;32;20215;-70
2020/12/14 09:02:14;;;;;;;13.30;11.87;;;9.60;99.90;;;;;;4394278;32;20180;-72
2020/12/14 09:04:40;;;;;;;13.93;12.40;;;9.70;99.90;;;;;;4390659;32;20535;-71
2020/12/14 09:07:22;;;;;;;14.93;11.40;;;9.70;99.90;;;;;;4392030;32;20495;-72
2020/12/14 09:09:48;;;;;;;18.53;12.73;;;9.80;99.90;;;;;;4391610;32;20168;-70
2020/12/14 09:12:18;;;;;;;12.07;10.67;;;9.70;99.90;;;;;;4390904;32;20267;-70
2020/12/14 09:14:44;;;;;;;14.43;12.93;;;9.90;99.90;;;;;;4388346;32;20216;-72
2020/12/14 09:17:15;;;;;;;14.20;11.50;;;9.90;99.90;;;;;;4392662;32;20247;-71
2020/12/14 09:19:52;;;;;;;12.87;11.57;;;9.90;99.90;;;;;;4394880;32;20172;-68
2020/12/14 09:22:28;;;;;;;12.43;11.17;;;10.00;99.90;;;;;;4395546;32;20495;-73
2020/12/14 09:24:54;;;;;;;12.67;11.47;;;10.00;99.90;;;;;;4394023;32;20734;-69
2020/12/14 09:27:22;;;;;;;11.97;10.77;;;10.10;99.90;;;;;;4395192;32;20507;-72
2020/12/14 09:29:59;;;;;;;12.10;10.77;;;10.10;99.90;;;;;;4396559;32;20180;-72
2020/12/14 09:32:25;;;;;;;11.70;10.30;;;10.10;99.90;;;;;;4401353;32;20193;-72
2020/12/14 09:34:54;;;;;;;10.20;9.17;;;10.10;99.90;;;;;;4396642;32;20496;-71
2020/12/14 09:37:46;;;;;;;11.83;10.53;;;10.20;99.90;;;;;;4390484;32;20282;-71
2020/12/14 09:40:16;;;;;;;9.93;8.93;;;10.20;99.90;;;;;;4397686;32;20514;-70
2020/12/14 09:42:42;;;;;;;11.23;10.10;;;10.20;99.90;;;;;;4393767;32;20671;-72
2020/12/14 09:45:14;;;;;;;11.90;9.30;;;10.30;99.90;;;;;;4393555;32;20187;-71
2020/12/14 09:47:43;;;;;;;10.07;9.07;;;10.30;99.90;;;;;;4393467;32;20511;-72
2020/12/14 09:50:13;;;;;;;9.87;8.87;;;10.30;99.90;;;;;;4396049;32;20169;-70
2020/12/14 09:52:44;;;;;;;9.63;8.80;;;10.40;99.90;;;;;;4389479;32;20222;-73
2020/12/14 09:55:13;;;;;;;9.93;9.10;;;10.40;99.90;;;;;;4394549;32;20164;-71
2020/12/14 09:57:41;;;;;;;8.43;7.73;;;10.40;99.90;;;;;;4397525;32;20160;-70
2020/12/14 10:00:15;;;;;;;9.33;8.37;;;10.50;99.90;;;;;;4391663;32;20207;-71
2020/12/14 10:02:46;;;;;;;10.10;8.23;;;10.50;99.90;;;;;;4399891;32;20207;-70
2020/12/14 10:05:21;;;;;;;8.53;7.63;;;10.50;99.90;;;;;;4396247;32;20213;-71
2020/12/14 10:07:51;;;;;;;11.83;7.40;;;10.50;99.90;;;;;;4397379;32;20504;-71
2020/12/14 10:10:22;;;;;;;8.53;7.10;;;10.50;99.90;;;;;;4398001;32;20362;-72
2020/12/14 10:12:58;;;;;;;8.50;7.57;;;10.50;99.90;;;;;;4395723;32;20163;-71
2020/12/14 10:15:30;;;;;;;7.57;6.63;;;10.50;99.90;;;;;;4401134;32;20216;-70
2020/12/14 10:18:00;;;;;;;8.27;7.30;;;10.50;99.90;;;;;;4399844;32;20171;-70
2020/12/14 10:20:30;;;;;;;8.43;6.90;;;10.60;99.90;;;;;;4395727;32;20170;-70
2020/12/14 10:22:59;;;;;;;8.57;7.57;;;10.50;99.90;;;;;;4397786;32;20229;-71
2020/12/14 10:25:29;;;;;;;7.90;6.97;;;10.50;99.90;;;;;;4397077;32;20160;-72
2020/12/14 10:28:09;;;;;;;8.30;7.50;;;10.50;99.90;;;;;;4393802;32;20218;-72
2020/12/14 10:30:40;;;;;;;8.67;6.80;;;10.50;99.90;;;;;;4394156;32;20203;-69
2020/12/14 10:33:12;;;;;;;7.00;6.00;;;10.60;99.90;;;;;;4391906;32;20172;-69
2020/12/14 10:35:42;;;;;;;5.67;5.07;;;10.60;99.90;;;;;;4399568;32;20197;-70
2020/12/14 10:38:29;;;;;;;6.37;5.77;;;10.70;99.90;;;;;;4394139;32;20160;-71
2020/12/14 10:40:55;;;;;;;6.37;5.77;;;10.60;99.90;;;;;;4396805;32;20159;-70
2020/12/14 10:43:27;;;;;;;6.23;5.73;;;10.60;99.90;;;;;;4394182;32;20183;-70
2020/12/14 10:45:57;;;;;;;6.80;6.17;;;10.60;99.90;;;;;;4398912;32;20235;-71
2020/12/14 10:48:27;;;;;;;7.27;5.87;;;10.60;99.90;;;;;;4397775;32;20179;-69
2020/12/14 10:50:53;;;;;;;8.17;5.50;;;10.60;99.90;;;;;;4393128;32;20558;-70
2020/12/14 10:53:26;;;;;;;5.73;5.23;;;10.70;99.90;;;;;;4396766;32;20164;-70
2020/12/14 10:55:56;;;;;;;6.83;5.83;;;10.70;99.90;;;;;;4395874;32;20180;-69
2020/12/14 10:58:24;;;;;;;6.40;5.80;;;10.70;99.90;;;;;;4397698;32;20152;-72
2020/12/14 11:00:51;;;;;;;6.77;5.77;;;10.70;99.90;;;;;;4397613;32;20162;-70
2020/12/14 11:03:34;;;;;;;8.10;5.97;;;10.80;99.90;;;;;;4391062;32;20611;-69
2020/12/14 11:06:02;;;;;;;6.80;5.80;;;10.80;99.90;;;;;;4391275;32;20202;-70
2020/12/14 11:08:32;;;;;;;6.17;5.67;;;10.80;99.90;;;;;;4395572;32;20186;-71
2020/12/14 11:11:03;;;;;;;5.90;5.30;;;10.80;99.90;;;;;;4393832;32;20160;-72
2020/12/14 11:13:42;;;;;;;6.47;4.73;;;10.90;99.90;;;;;;4398475;32;20227;-70
2020/12/14 11:16:11;;;;;;;5.60;5.10;;;11.00;99.90;;;;;;4392473;32;20588;-69
2020/12/14 11:18:39;;;;;;;7.17;5.33;;;11.10;99.90;;;;;;4401421;32;20162;-68
2020/12/14 11:21:10;;;;;;;5.57;5.07;;;11.10;99.90;;;;;;4393297;32;20299;-71
2020/12/14 11:23:41;;;;;;;5.80;5.20;;;11.10;99.90;;;;;;4398522;32;20687;-72
2020/12/14 11:26:08;;;;;;;5.87;5.27;;;11.10;99.90;;;;;;4396267;32;20159;-68
2020/12/14 11:28:39;;;;;;;7.00;5.03;;;11.10;99.90;;;;;;4394653;32;20175;-70
2020/12/14 11:31:10;;;;;;;5.17;4.70;;;11.10;99.90;;;;;;4392289;32;20155;-71
2020/12/14 11:33:37;;;;;;;5.23;4.73;;;11.10;99.90;;;;;;4393757;32;20203;-70
2020/12/14 11:36:10;;;;;;;5.53;4.90;;;11.10;99.90;;;;;;4399459;32;20208;-69
2020/12/14 11:38:36;;;;;;;7.53;5.50;;;11.00;99.90;;;;;;4390111;32;20234;-69
2020/12/14 11:41:03;;;;;;;6.30;5.13;;;11.20;99.90;;;;;;4393710;32;20340;-69
2020/12/14 11:43:37;;;;;;;5.90;5.40;;;10.90;99.90;;;;;;4397197;32;20159;-69
2020/12/14 11:46:07;;;;;;;8.13;5.43;;;11.00;99.90;;;;;;4393417;32;20596;-69
2020/12/14 11:48:41;;;;;;;8.60;5.60;;;11.00;99.90;;;;;;4392995;32;20222;-69
2020/12/14 11:51:07;;;;;;;6.73;5.57;;;11.00;99.90;;;;;;4393263;32;20234;-69
2020/12/14 11:53:40;;;;;;;6.20;5.50;;;11.10;99.90;;;;;;4391630;32;20176;-71
2020/12/14 11:56:07;;;;;;;8.33;6.00;;;11.10;99.90;;;;;;4396380;32;20217;-69
2020/12/14 11:58:33;;;;;;;7.07;5.30;;;11.10;99.90;;;;;;4393712;32;20182;-70
2020/12/14 12:01:00;;;;;;;4.80;4.27;;;11.20;99.90;;;;;;4391273;32;20178;-71
2020/12/14 12:03:26;;;;;;;6.17;4.73;;;11.30;99.90;;;;;;4396893;32;20194;-69
2020/12/14 12:05:53;;;;;;;7.53;4.40;;;11.40;99.90;;;;;;4392841;32;20222;-69
2020/12/14 12:08:19;;;;;;;5.00;4.50;;;11.30;99.90;;;;;;4397462;32;20208;-70
2020/12/14 12:10:48;;;;;;;6.13;4.77;;;11.30;99.90;;;;;;4391844;32;20168;-69
2020/12/14 12:13:18;;;;;;;6.57;4.50;;;11.30;99.90;;;;;;4396778;32;20441;-70
2020/12/14 12:15:48;;;;;;;4.30;3.83;;;11.30;99.90;;;;;;4397661;32;20177;-70
2020/12/14 12:18:14;;;;;;;7.80;4.37;;;11.40;99.90;;;;;;4395169;32;20201;-71
2020/12/14 12:20:41;;;;;;;5.57;4.83;;;11.50;99.90;;;;;;4394175;32;20179;-70
2020/12/14 12:23:07;;;;;;;9.17;4.10;;;11.50;99.90;;;;;;4390447;32;20163;-70
2020/12/14 12:25:33;;;;;;;5.60;4.13;;;11.60;99.90;;;;;;4391455;32;20163;-69
2020/12/14 12:28:00;;;;;;;5.97;4.03;;;11.50;99.90;;;;;;4390785;32;20178;-70
2020/12/14 12:30:33;;;;;;;4.30;3.50;;;11.50;99.90;;;;;;4394321;32;20184;-71
2020/12/14 12:33:00;;;;;;;4.90;4.00;;;11.60;99.90;;;;;;4397858;32;20182;-72
2020/12/14 12:35:26;;;;;;;7.33;4.40;;;11.60;99.90;;;;;;4391289;32;20163;-72
2020/12/14 12:37:53;;;;;;;5.67;4.13;;;11.60;99.90;;;;;;4397023;32;20164;-71
2020/12/14 12:40:19;;;;;;;8.50;4.00;;;11.50;99.90;;;;;;4393820;32;20160;-71
2020/12/14 12:42:45;;;;;;;5.50;4.03;;;11.50;99.90;;;;;;4391837;32;20167;-73
2020/12/14 12:45:12;;;;;;;6.83;4.27;;;11.50;99.90;;;;;;4389679;32;20522;-71
2020/12/14 12:47:39;;;;;;;5.00;4.50;;;11.40;99.90;;;;;;4395350;32;20243;-71
2020/12/14 12:50:05;;;;;;;6.67;4.20;;;11.40;99.90;;;;;;4394447;32;20218;-70
2020/12/14 12:52:32;;;;;;;6.20;4.50;;;11.50;99.90;;;;;;4391332;32;20177;-70
2020/12/14 12:54:58;;;;;;;5.87;5.27;;;11.40;99.90;;;;;;4390187;32;20156;-72
2020/12/14 12:57:24;;;;;;;5.90;4.53;;;11.40;99.90;;;;;;4394424;32;20172;-70
2020/12/14 12:59:53;;;;;;;6.97;4.70;;;11.40;99.90;;;;;;4395561;32;20595;-68
2020/12/14 13:02:24;;;;;;;6.83;4.80;;;11.30;99.90;;;;;;4393498;32;20541;-71
2020/12/14 13:04:55;;;;;;;8.53;4.77;;;11.40;99.90;;;;;;4394693;32;20165;-70
2020/12/14 13:07:23;;;;;;;4.67;4.17;;;11.40;99.90;;;;;;4396230;32;20216;-69
2020/12/14 13:09:51;;;;;;;10.33;4.83;;;11.40;99.90;;;;;;4394978;32;20160;-70
2020/12/14 13:12:22;;;;;;;5.93;4.00;;;11.40;99.90;;;;;;4396046;32;20544;-70